Time;durP1;ratioP1;P1;durP2;ratioP2;P2;SDS_P1;SDS_P2;PMS_P1;PMS_P2;Temp;Humidity;BMP_temperature;BMP_pressure;BME280_temperature;BME280_humidity;BME280_pressure;Samples;Min_cycle;Max_cycle;Signal;HPM_P1;HPM_P2
2022/07/29 00:00:48;;;;;;;5.22;1.00;;;12.40;95.00;;;;;;5036886;28;20028;-69
2022/07/29 00:03:15;;;;;;;4.28;1.02;;;12.40;95.00;;;;;;5043155;28;20021;-70
2022/07/29 00:05:43;;;;;;;2.78;1.17;;;12.50;94.30;;;;;;5041881;28;20025;-73
2022/07/29 00:08:10;;;;;;;2.53;1.15;;;12.50;94.30;;;;;;5045236;28;20017;-70
2022/07/29 00:10:38;;;;;;;3.70;1.10;;;12.60;94.40;;;;;;5034732;28;20657;-74
2022/07/29 00:13:05;;;;;;;5.50;1.00;;;12.70;94.10;;;;;;5036102;28;20220;-73
2022/07/29 00:15:33;;;;;;;6.03;1.08;;;12.70;94.30;;;;;;5033933;28;20029;-73
2022/07/29 00:18:00;;;;;;;1.92;0.98;;;12.80;94.00;;;;;;5032197;28;20481;-73
2022/07/29 00:20:27;;;;;;;1.90;0.93;;;12.80;93.30;;;;;;5040596;28;20532;-73
2022/07/29 00:22:55;;;;;;;2.25;0.98;;;12.90;93.00;;;;;;5038134;28;20036;-73
2022/07/29 00:25:22;;;;;;;2.88;0.93;;;12.90;92.80;;;;;;5040816;28;20031;-74
2022/07/29 00:27:49;;;;;;;3.92;1.92;;;13.00;92.60;;;;;;5039072;28;20016;-75
2022/07/29 00:30:16;;;;;;;1.80;0.93;;;13.00;92.80;;;;;;5039817;28;20490;-75
2022/07/29 00:32:44;;;;;;;3.10;0.85;;;13.20;92.50;;;;;;5039470;28;20033;-73
2022/07/29 00:37:56;;;;;;;2.40;0.90;;;13.30;91.80;;;;;;5038690;28;20040;-74
2022/07/29 00:40:24;;;;;;;4.15;1.33;;;13.30;91.90;;;;;;5040802;28;20108;-74
2022/07/29 00:42:53;;;;;;;3.50;1.33;;;13.40;91.80;;;;;;5037664;28;20017;-74
2022/07/29 00:45:21;;;;;;;5.07;1.20;;;13.50;92.10;;;;;;5038683;28;20029;-76
2022/07/29 00:47:50;;;;;;;2.33;0.90;;;13.50;92.00;;;;;;5055699;28;20029;-70
2022/07/29 00:50:18;;;;;;;2.85;1.25;;;13.50;92.10;;;;;;5059387;28;20099;-71
2022/07/29 00:52:45;;;;;;;2.65;0.90;;;13.60;92.00;;;;;;5059896;28;20020;-73
2022/07/29 00:55:15;;;;;;;2.00;1.10;;;13.60;91.20;;;;;;5060060;28;20506;-71
2022/07/29 00:57:44;;;;;;;2.53;1.17;;;13.70;91.10;;;;;;5058700;28;20052;-74
2022/07/29 01:00:15;;;;;;;3.50;1.00;;;13.80;91.00;;;;;;5038804;28;20108;-71
2022/07/29 01:02:42;;;;;;;3.42;1.20;;;13.80;90.90;;;;;;5039497;28;20021;-71
2022/07/29 01:05:11;;;;;;;4.25;1.42;;;13.90;90.50;;;;;;5038702;28;20033;-71
2022/07/29 01:07:40;;;;;;;2.40;0.90;;;14.00;90.60;;;;;;5054461;28;20086;-71
2022/07/29 01:10:10;;;;;;;4.45;1.88;;;14.10;90.40;;;;;;5051577;28;20028;-70
2022/07/29 01:12:39;;;;;;;2.22;1.00;;;14.10;90.00;;;;;;5039715;28;20021;-70
2022/07/29 01:15:08;;;;;;;3.17;1.10;;;14.30;90.20;;;;;;5019955;28;20025;-72
2022/07/29 01:17:57;;;;;;;4.03;1.30;;;14.30;90.20;;;;;;5039681;28;20033;-72
2022/07/29 01:20:36;;;;;;;2.17;1.45;;;14.30;90.00;;;;;;5039070;28;20029;-71
2022/07/29 01:23:30;;;;;;;3.22;1.10;;;14.40;88.70;;;;;;5055307;28;20366;-71
2022/07/29 01:26:23;;;;;;;2.00;1.17;;;14.40;88.00;;;;;;5058507;28;20381;-73
2022/07/29 01:28:56;;;;;;;2.50;1.02;;;14.50;87.40;;;;;;5059214;28;20457;-72
2022/07/29 01:31:48;;;;;;;3.92;2.05;;;14.60;86.20;;;;;;5058819;28;20028;-69
2022/07/29 01:34:38;;;;;;;2.60;0.98;;;14.80;85.50;;;;;;5032697;28;20024;-73
2022/07/29 01:37:24;;;;;;;2.13;1.15;;;14.90;85.50;;;;;;5050084;28;20036;-72
2022/07/29 01:39:55;;;;;;;4.97;2.03;;;14.90;84.10;;;;;;5041118;28;20413;-72
2022/07/29 01:42:36;;;;;;;1.95;1.17;;;15.10;84.70;;;;;;5040613;28;20082;-71
2022/07/29 01:45:24;;;;;;;1.88;0.90;;;15.20;84.40;;;;;;5042725;28;20124;-71
2022/07/29 01:48:00;;;;;;;1.92;1.00;;;15.30;83.70;;;;;;5038466;28;20516;-72
2022/07/29 01:50:56;;;;;;;2.47;1.30;;;15.50;83.60;;;;;;5038607;28;20478;-73
2022/07/29 01:53:45;;;;;;;3.20;2.13;;;15.70;81.30;;;;;;5038985;28;20025;-70
2022/07/29 01:56:14;;;;;;;2.67;1.33;;;15.70;80.20;;;;;;5037675;28;20036;-73
2022/07/29 01:58:43;;;;;;;3.22;1.48;;;15.80;79.60;;;;;;5042503;28;20127;-71
2022/07/29 02:01:13;;;;;;;3.72;1.73;;;15.90;76.10;;;;;;5057683;28;20361;-72
2022/07/29 02:03:44;;;;;;;1.33;0.98;;;16.10;76.30;;;;;;5042943;28;20036;-71
2022/07/29 02:06:16;;;;;;;4.05;1.10;;;16.20;76.90;;;;;;5038006;28;20071;-72
2022/07/29 02:08:54;;;;;;;2.40;1.67;;;16.50;78.70;;;;;;5038687;28;20013;-72
2022/07/29 02:11:21;;;;;;;1.73;1.15;;;16.70;75.20;;;;;;5036183;28;20032;-72
2022/07/29 02:13:52;;;;;;;2.90;1.10;;;16.80;72.70;;;;;;5055071;28;20029;-72
2022/07/29 02:16:23;;;;;;;1.92;1.13;;;16.90;72.30;;;;;;5046113;28;20067;-72
2022/07/29 02:18:53;;;;;;;2.75;1.48;;;17.00;72.10;;;;;;5038097;28;20802;-70
2022/07/29 02:21:25;;;;;;;5.28;1.00;;;16.80;72.20;;;;;;5036785;28;20075;-73
2022/07/29 02:23:53;;;;;;;4.53;1.35;;;16.90;72.50;;;;;;5039725;28;20035;-74
2022/07/29 02:26:23;;;;;;;11.65;2.15;;;16.90;72.30;;;;;;5039249;28;20488;-73
2022/07/29 02:28:55;;;;;;;2.80;1.40;;;17.00;72.00;;;;;;5058075;28;20017;-73
2022/07/29 02:31:26;;;;;;;2.92;1.20;;;17.00;71.70;;;;;;5044491;28;20070;-73
2022/07/29 02:33:54;;;;;;;6.40;1.33;;;17.00;72.90;;;;;;5037526;28;20106;-73
2022/07/29 02:36:23;;;;;;;4.03;1.80;;;17.10;71.70;;;;;;5039496;28;20044;-72
2022/07/29 02:38:51;;;;;;;4.72;1.60;;;17.30;71.50;;;;;;5058068;28;20123;-72
2022/07/29 02:41:24;;;;;;;5.93;1.85;;;17.50;70.60;;;;;;5057761;28;20020;-73
2022/07/29 02:43:54;;;;;;;;;;;18.00;69.40;;;;;;5050091;28;20079;-74
2022/07/29 02:46:32;;;;;;;1.77;1.17;;;18.20;68.20;;;;;;5044605;28;19904;-75
2022/07/29 02:49:26;;;;;;;3.50;1.58;;;18.40;66.30;;;;;;5058037;28;20436;-75
2022/07/29 02:52:01;;;;;;;2.17;0.73;;;18.70;65.30;;;;;;5046872;28;20060;-77
2022/07/29 02:55:10;;;;;;;3.03;1.88;;;18.90;64.90;;;;;;5037014;28;20017;-79
2022/07/29 02:58:09;;;;;;;6.07;2.25;;;19.30;62.70;;;;;;4982515;28;20050;-74
2022/07/29 03:00:39;;;;;;;2.40;1.27;;;19.40;61.70;;;;;;5048065;28;20500;-73
2022/07/29 03:03:13;;;;;;;3.22;1.17;;;19.40;62.20;;;;;;5055469;28;20055;-73
2022/07/29 03:05:41;;;;;;;2.95;1.42;;;19.30;61.70;;;;;;5018457;28;20579;-72
2022/07/29 03:08:11;;;;;;;2.25;1.05;;;19.30;60.60;;;;;;5039137;28;20024;-76
2022/07/29 03:10:45;;;;;;;2.53;0.70;;;19.30;60.80;;;;;;5036780;28;20421;-71
2022/07/29 03:13:13;;;;;;;1.20;0.70;;;19.30;60.70;;;;;;5040327;28;20428;-70
2022/07/29 03:15:42;;;;;;;3.92;0.90;;;19.50;58.80;;;;;;5038634;28;20032;-68
2022/07/29 03:18:10;;;;;;;4.20;1.05;;;19.80;59.00;;;;;;5058359;28;20152;-70
2022/07/29 03:20:38;;;;;;;5.80;1.58;;;20.10;59.20;;;;;;5053439;28;20033;-68
2022/07/29 03:23:06;;;;;;;7.88;1.77;;;20.00;59.70;;;;;;5040298;28;20412;-68
2022/07/29 03:25:33;;;;;;;3.88;1.58;;;20.10;59.30;;;;;;5060258;28;20055;-67
2022/07/29 03:28:00;;;;;;;4.00;1.15;;;20.50;59.10;;;;;;5061252;28;20420;-72
2022/07/29 03:30:30;;;;;;;3.42;0.82;;;20.90;58.50;;;;;;5060614;28;20020;-71
2022/07/29 03:32:57;;;;;;;6.18;1.92;;;21.40;58.40;;;;;;5060992;28;20154;-69
2022/07/29 03:35:25;;;;;;;3.15;0.80;;;21.80;57.30;;;;;;5058162;28;20028;-70
2022/07/29 03:37:52;;;;;;;3.95;0.90;;;22.20;56.00;;;;;;5040160;28;20025;-76
2022/07/29 03:40:26;;;;;;;3.33;1.20;;;22.50;55.60;;;;;;5041548;28;20104;-71
2022/07/29 03:42:55;;;;;;;5.90;0.90;;;22.80;56.40;;;;;;5040512;28;20418;-72
2022/07/29 03:45:25;;;;;;;2.92;0.68;;;22.90;55.00;;;;;;5041982;28;20699;-73
2022/07/29 03:48:04;;;;;;;2.60;0.80;;;23.00;54.40;;;;;;5043954;28;20028;-72
2022/07/29 03:50:33;;;;;;;5.70;1.10;;;23.10;56.20;;;;;;5048697;28;20036;-73
2022/07/29 03:53:01;;;;;;;4.25;1.17;;;23.00;55.50;;;;;;5042291;28;20031;-73
2022/07/29 03:55:32;;;;;;;4.25;0.90;;;22.80;55.90;;;;;;5041491;28;20035;-73
2022/07/29 03:58:02;;;;;;;5.82;1.17;;;22.50;57.20;;;;;;5060885;28;20399;-73
2022/07/29 04:00:33;;;;;;;5.68;0.88;;;22.60;55.20;;;;;;5060164;28;20492;-74
2022/07/29 04:03:01;;;;;;;4.00;0.70;;;22.70;55.50;;;;;;5059944;28;20546;-73
2022/07/29 04:05:28;;;;;;;2.33;0.93;;;22.80;55.60;;;;;;5057129;28;20025;-76
2022/07/29 04:07:55;;;;;;;3.78;0.90;;;22.80;55.60;;;;;;5031488;28;20024;-72
2022/07/29 04:10:23;;;;;;;4.75;1.10;;;22.90;56.70;;;;;;5060336;28;20016;-73
2022/07/29 04:12:50;;;;;;;3.50;1.15;;;22.70;55.70;;;;;;5058768;28;20024;-76
2022/07/29 04:15:17;;;;;;;2.17;1.00;;;22.90;55.80;;;;;;5059118;28;20021;-73
2022/07/29 04:17:45;;;;;;;4.88;1.67;;;22.90;55.80;;;;;;5039429;28;20029;-74
2022/07/29 04:20:14;;;;;;;5.60;2.20;;;22.90;54.60;;;;;;5040933;28;20029;-73
2022/07/29 04:22:41;;;;;;;4.68;0.85;;;23.00;54.70;;;;;;5033208;28;20032;-74
2022/07/29 04:25:09;;;;;;;3.28;0.90;;;22.80;54.40;;;;;;5054739;28;20028;-73
2022/07/29 04:27:59;;;;;;;3.20;0.80;;;22.40;55.10;;;;;;5054890;28;20488;-70
2022/07/29 04:30:23;;;;;;;3.13;1.05;;;21.80;56.40;;;;;;5040331;28;20029;-72
2022/07/29 04:32:51;;;;;;;2.97;0.80;;;21.20;57.20;;;;;;5039553;28;20023;-71
2022/07/29 04:35:19;;;;;;;2.88;1.13;;;20.90;58.20;;;;;;5039859;28;20029;-73
2022/07/29 04:37:46;;;;;;;3.72;1.13;;;20.20;59.60;;;;;;5041028;28;20429;-73
2022/07/29 04:40:13;;;;;;;3.40;1.05;;;19.80;60.20;;;;;;5048672;28;20818;-74
2022/07/29 04:42:41;;;;;;;3.72;1.10;;;19.20;61.70;;;;;;5060265;28;20048;-73
2022/07/29 04:45:08;;;;;;;9.75;1.40;;;19.00;62.40;;;;;;5041186;28;20039;-73
2022/07/29 04:47:36;;;;;;;3.88;1.17;;;18.70;62.50;;;;;;5059837;28;20035;-74
2022/07/29 04:50:05;;;;;;;5.38;1.52;;;18.50;62.80;;;;;;5049032;28;20075;-71
2022/07/29 04:52:32;;;;;;;3.88;1.13;;;18.50;63.50;;;;;;5040165;28;20025;-71
2022/07/29 04:54:59;;;;;;;3.97;1.33;;;18.40;63.40;;;;;;5039889;28;20096;-74
2022/07/29 04:57:26;;;;;;;4.50;1.30;;;18.30;63.70;;;;;;5039819;28;20037;-70
2022/07/29 04:59:54;;;;;;;5.50;1.35;;;18.10;63.70;;;;;;5039494;28;20120;-72
2022/07/29 05:02:21;;;;;;;3.97;0.80;;;18.00;64.70;;;;;;5043891;28;20021;-71
2022/07/29 05:04:49;;;;;;;3.72;1.17;;;17.70;65.90;;;;;;5032798;28;20029;-74
2022/07/29 05:07:16;;;;;;;2.80;1.00;;;17.50;66.40;;;;;;5033737;28;20025;-73
2022/07/29 05:09:43;;;;;;;5.20;1.23;;;17.40;67.10;;;;;;5030496;28;20029;-73
2022/07/29 05:12:11;;;;;;;3.67;1.35;;;17.20;66.30;;;;;;5032311;28;20039;-73
2022/07/29 05:14:39;;;;;;;4.38;1.02;;;17.20;66.10;;;;;;5038631;28;20082;-74
2022/07/29 05:17:06;;;;;;;5.60;1.25;;;17.10;67.10;;;;;;5039108;28;20029;-76
2022/07/29 05:19:33;;;;;;;6.22;1.52;;;17.10;65.80;;;;;;5036858;28;20175;-72
2022/07/29 05:22:00;;;;;;;5.35;1.55;;;17.10;66.10;;;;;;5038727;28;20051;-71
2022/07/29 05:24:28;;;;;;;2.58;1.45;;;17.20;66.10;;;;;;5037850;28;20036;-75
2022/07/29 05:26:58;;;;;;;3.72;0.80;;;17.10;66.90;;;;;;5048134;28;20043;-73
2022/07/29 05:29:25;;;;;;;5.97;1.40;;;17.00;65.80;;;;;;5046503;28;20051;-73
2022/07/29 05:31:53;;;;;;;4.60;0.70;;;16.90;65.80;;;;;;5059857;28;20032;-76
2022/07/29 05:34:21;;;;;;;3.45;1.17;;;16.90;66.30;;;;;;5040998;28;20025;-75
2022/07/29 05:36:48;;;;;;;3.58;1.30;;;17.00;65.80;;;;;;5020620;28;20573;-74
2022/07/29 05:39:15;;;;;;;7.43;0.85;;;17.10;66.00;;;;;;5038110;28;20064;-74
2022/07/29 05:41:42;;;;;;;4.30;1.20;;;17.00;66.30;;;;;;5053150;28;20546;-73
2022/07/29 05:44:11;;;;;;;3.60;0.95;;;16.90;67.10;;;;;;5059268;28;20465;-74
2022/07/29 05:46:38;;;;;;;3.42;1.20;;;16.90;66.90;;;;;;5057084;28;20097;-72
2022/07/29 05:49:06;;;;;;;5.95;1.00;;;16.80;68.40;;;;;;5053961;28;20485;-75
2022/07/29 05:51:34;;;;;;;2.13;0.90;;;16.70;68.70;;;;;;5036555;28;20462;-77
2022/07/29 05:54:02;;;;;;;3.35;0.90;;;16.70;68.40;;;;;;5041380;28;20417;-69
2022/07/29 05:56:29;;;;;;;5.25;1.08;;;16.70;67.30;;;;;;5031466;28;20021;-73
2022/07/29 05:58:56;;;;;;;4.15;0.95;;;16.80;67.10;;;;;;5038035;28;20033;-72
2022/07/29 06:01:24;;;;;;;2.90;0.77;;;16.90;67.10;;;;;;5039667;28;20024;-71
2022/07/29 06:03:51;;;;;;;4.35;1.05;;;17.10;67.20;;;;;;5028377;28;20028;-71
2022/07/29 06:06:18;;;;;;;5.03;1.25;;;17.20;66.80;;;;;;5036706;28;20024;-70
2022/07/29 06:08:45;;;;;;;5.95;1.33;;;17.30;67.20;;;;;;5035737;28;20373;-71
2022/07/29 06:11:13;;;;;;;5.15;1.13;;;17.40;68.00;;;;;;5028394;28;20036;-71
2022/07/29 06:13:40;;;;;;;3.65;1.17;;;17.50;67.90;;;;;;5035671;28;20445;-71
2022/07/29 06:16:08;;;;;;;2.97;0.90;;;18.00;67.80;;;;;;5037436;28;20598;-72
2022/07/29 06:18:35;;;;;;;5.07;0.90;;;18.40;67.00;;;;;;5036302;28;20036;-73
2022/07/29 06:21:08;;;;;;;3.92;1.17;;;18.70;67.30;;;;;;5033755;28;20049;-73
2022/07/29 06:23:37;;;;;;;3.30;0.90;;;19.20;66.80;;;;;;5029569;28;20024;-74
2022/07/29 06:26:04;;;;;;;4.20;1.40;;;19.20;65.30;;;;;;5025009;28;20037;-73
2022/07/29 06:28:35;;;;;;;3.70;0.60;;;19.10;65.00;;;;;;5035269;28;20024;-74
2022/07/29 06:31:05;;;;;;;4.72;1.15;;;19.00;64.70;;;;;;5027376;28;20439;-72
2022/07/29 06:33:33;;;;;;;4.03;1.30;;;18.60;66.10;;;;;;5036362;28;20036;-75
2022/07/29 06:36:00;;;;;;;3.53;1.65;;;18.20;67.30;;;;;;5037926;28;20726;-73
2022/07/29 06:38:27;;;;;;;5.65;1.50;;;17.70;68.00;;;;;;5034383;28;20480;-74
2022/07/29 06:41:02;;;;;;;3.70;0.90;;;17.20;69.20;;;;;;5018680;28;20029;-70
2022/07/29 06:43:37;;;;;;;3.25;1.30;;;16.70;69.40;;;;;;5034508;28;20539;-73
2022/07/29 06:46:07;;;;;;;4.65;1.10;;;16.20;69.70;;;;;;5035687;28;20047;-74
2022/07/29 06:48:35;;;;;;;6.47;1.65;;;16.00;70.50;;;;;;5035632;28;20017;-72
2022/07/29 06:51:04;;;;;;;4.07;1.48;;;15.70;71.00;;;;;;5029614;28;20386;-75
2022/07/29 06:53:35;;;;;;;7.88;1.48;;;15.40;71.50;;;;;;5016569;28;20147;-73
2022/07/29 06:56:04;;;;;;;6.47;1.48;;;15.20;72.50;;;;;;5028793;28;20389;-73
2022/07/29 06:58:36;;;;;;;7.97;2.35;;;15.00;73.20;;;;;;5039440;28;20461;-73
2022/07/29 07:01:05;;;;;;;6.35;3.38;;;14.90;73.80;;;;;;5044442;28;20032;-71
2022/07/29 07:03:33;;;;;;;3.95;1.80;;;14.80;74.10;;;;;;5040292;28;20059;-72
2022/07/29 07:06:00;;;;;;;4.75;1.65;;;14.80;74.40;;;;;;5040598;28;20489;-70
2022/07/29 07:08:28;;;;;;;5.55;1.92;;;14.70;75.00;;;;;;5040160;28;20017;-74
2022/07/29 07:10:58;;;;;;;6.38;1.48;;;14.70;75.60;;;;;;5039701;28;20060;-75
2022/07/29 07:13:26;;;;;;;3.97;1.30;;;14.60;75.90;;;;;;5030852;28;20498;-72
2022/07/29 07:15:53;;;;;;;5.88;3.53;;;14.50;76.30;;;;;;5030472;28;20020;-71
2022/07/29 07:18:20;;;;;;;8.10;4.65;;;14.50;77.30;;;;;;5042641;28;20101;-72
2022/07/29 07:20:48;;;;;;;4.30;2.15;;;14.40;77.20;;;;;;5042888;28;20021;-80
2022/07/29 07:23:15;;;;;;;7.63;2.88;;;14.30;76.80;;;;;;5029793;28;20021;-79
2022/07/29 07:25:43;;;;;;;4.90;1.42;;;14.30;77.60;;;;;;5046304;28;20821;-79
2022/07/29 07:28:10;;;;;;;3.90;2.30;;;14.10;77.30;;;;;;5016024;28;20028;-76
2022/07/29 07:30:38;;;;;;;6.00;1.90;;;14.10;77.40;;;;;;5032141;28;20040;-78
2022/07/29 07:33:05;;;;;;;4.80;1.83;;;14.00;78.30;;;;;;5021204;28;20486;-74
2022/07/29 07:35:32;;;;;;;6.10;2.42;;;14.00;78.50;;;;;;5042279;28;20021;-70
2022/07/29 07:38:00;;;;;;;6.80;2.00;;;14.00;79.80;;;;;;5044955;28;20021;-71
2022/07/29 07:40:28;;;;;;;5.80;1.80;;;13.90;79.50;;;;;;5046034;28;20024;-75
2022/07/29 07:42:55;;;;;;;7.20;4.32;;;13.90;79.90;;;;;;5047663;28;20025;-73
2022/07/29 07:45:23;;;;;;;5.18;2.80;;;13.90;80.50;;;;;;5038123;28;20033;-72
2022/07/29 07:47:50;;;;;;;7.13;3.17;;;13.70;80.20;;;;;;5039672;28;20027;-74
2022/07/29 07:50:18;;;;;;;6.43;3.10;;;13.70;80.70;;;;;;5042344;28;20021;-69
2022/07/29 07:52:54;;;;;;;11.38;5.20;;;13.60;81.10;;;;;;5021722;28;20474;-75
2022/07/29 07:55:22;;;;;;;14.38;5.68;;;13.40;80.90;;;;;;5037694;28;20057;-74
2022/07/29 07:57:51;;;;;;;7.78;5.28;;;13.40;81.90;;;;;;5035660;28;20047;-72
2022/07/29 08:00:18;;;;;;;14.10;6.90;;;13.40;81.90;;;;;;5041082;28;20024;-74
2022/07/29 08:02:46;;;;;;;13.00;5.63;;;13.40;82.20;;;;;;5049571;28;20019;-75
2022/07/29 08:05:17;;;;;;;8.63;4.72;;;13.40;83.00;;;;;;5031095;28;20433;-71
2022/07/29 08:07:47;;;;;;;11.80;6.00;;;13.30;83.10;;;;;;5034382;28;20017;-70
2022/07/29 08:13:06;;;;;;;9.25;3.85;;;13.20;83.80;;;;;;5039169;28;20135;-70
2022/07/29 08:15:34;;;;;;;7.25;3.60;;;13.20;83.90;;;;;;5032322;28;20017;-69
2022/07/29 08:18:04;;;;;;;9.13;6.15;;;13.10;84.10;;;;;;5032597;28;20052;-71
2022/07/29 08:20:35;;;;;;;10.80;6.90;;;13.10;84.20;;;;;;5039506;28;20045;-71
2022/07/29 08:23:05;;;;;;;16.08;6.75;;;13.10;84.40;;;;;;5040530;28;20501;-69
2022/07/29 08:25:35;;;;;;;9.15;5.95;;;13.00;84.50;;;;;;5021974;28;20033;-71
2022/07/29 08:28:02;;;;;;;10.38;5.13;;;13.10;84.90;;;;;;5036370;28;20071;-71
2022/07/29 08:30:30;;;;;;;13.15;5.82;;;13.00;85.20;;;;;;5038337;28;20013;-70
2022/07/29 08:32:57;;;;;;;9.77;5.13;;;13.00;85.20;;;;;;5041959;28;20032;-72
2022/07/29 08:35:25;;;;;;;8.07;4.82;;;12.90;86.00;;;;;;5031679;28;20025;-82
2022/07/29 08:37:55;;;;;;;12.73;6.47;;;13.00;86.10;;;;;;5030143;28;20021;-70
2022/07/29 08:40:26;;;;;;;11.48;6.55;;;12.90;86.00;;;;;;5042250;28;20110;-71
2022/07/29 08:42:53;;;;;;;12.65;7.18;;;12.90;86.30;;;;;;5039366;28;20029;-77
2022/07/29 08:45:23;;;;;;;10.55;6.40;;;12.90;87.00;;;;;;5039469;28;20044;-72
2022/07/29 08:47:50;;;;;;;15.60;6.65;;;12.90;87.20;;;;;;5037426;28;20031;-70
2022/07/29 08:50:18;;;;;;;13.15;7.53;;;12.90;87.60;;;;;;5033241;28;20071;-69
2022/07/29 08:52:47;;;;;;;18.35;11.05;;;12.90;88.00;;;;;;5036217;28;20096;-71
2022/07/29 08:55:18;;;;;;;11.95;8.48;;;12.80;88.40;;;;;;5027454;28;20500;-74
2022/07/29 08:57:52;;;;;;;11.45;7.97;;;12.80;89.10;;;;;;5041551;28;20029;-72
2022/07/29 09:00:21;;;;;;;10.50;6.20;;;12.80;89.60;;;;;;5037437;28;20040;-71
2022/07/29 09:02:56;;;;;;;9.27;5.30;;;12.70;89.90;;;;;;5027552;28;20025;-71
2022/07/29 09:05:26;;;;;;;13.25;6.22;;;12.70;89.50;;;;;;5035989;28;20793;-74
2022/07/29 09:07:54;;;;;;;11.98;6.18;;;12.70;90.00;;;;;;5036070;28;20028;-73
2022/07/29 09:10:22;;;;;;;12.43;6.88;;;12.70;90.20;;;;;;5037905;28;20549;-69
2022/07/29 09:12:49;;;;;;;16.90;9.13;;;12.70;90.30;;;;;;5039619;28;20409;-71
2022/07/29 09:15:17;;;;;;;14.50;10.15;;;12.70;90.10;;;;;;5046191;28;20039;-72
2022/07/29 09:17:49;;;;;;;17.13;10.20;;;12.60;90.40;;;;;;5059440;28;20449;-76
2022/07/29 09:20:21;;;;;;;14.80;9.95;;;12.60;90.60;;;;;;5053014;28;20028;-73
2022/07/29 09:22:55;;;;;;;11.00;7.40;;;12.50;90.90;;;;;;5039130;28;20025;-73
2022/07/29 09:25:37;;;;;;;11.93;8.02;;;12.60;91.00;;;;;;5038602;28;20029;-73
2022/07/29 09:28:09;;;;;;;11.52;6.50;;;12.50;91.20;;;;;;5039469;28;20025;-71
2022/07/29 09:30:55;;;;;;;16.42;11.18;;;12.50;91.30;;;;;;5040018;28;20493;-71
2022/07/29 09:33:24;;;;;;;11.25;5.55;;;12.50;91.40;;;;;;5024661;28;20071;-70
2022/07/29 09:36:09;;;;;;;13.82;4.63;;;12.50;91.00;;;;;;5039097;28;20040;-71
2022/07/29 09:38:39;;;;;;;8.18;5.30;;;12.50;91.40;;;;;;5038323;28;20433;-74
2022/07/29 09:41:08;;;;;;;8.43;4.78;;;12.50;91.60;;;;;;5024932;28;20147;-72
2022/07/29 09:43:35;;;;;;;9.10;4.35;;;12.50;91.70;;;;;;5027187;28;20032;-73
2022/07/29 09:46:14;;;;;;;9.02;4.32;;;12.50;91.80;;;;;;5051913;28;20025;-73
2022/07/29 09:48:41;;;;;;;10.40;4.47;;;12.50;91.90;;;;;;5057437;28;20051;-74
2022/07/29 09:51:29;;;;;;;9.32;3.38;;;12.50;92.10;;;;;;5048371;28;20116;-80
2022/07/29 09:53:57;;;;;;;7.55;2.92;;;12.50;92.00;;;;;;5046873;28;20115;-76
2022/07/29 09:56:43;;;;;;;9.05;4.38;;;12.50;91.90;;;;;;5042912;28;20499;-75
2022/07/29 09:59:11;;;;;;;10.68;4.93;;;12.40;91.80;;;;;;5038475;28;20045;-72
2022/07/29 10:01:39;;;;;;;11.57;7.25;;;12.50;92.20;;;;;;5026078;28;20018;-74
2022/07/29 10:04:06;;;;;;;24.70;16.38;;;12.50;92.10;;;;;;5031512;28;20024;-77
2022/07/29 10:06:33;;;;;;;19.90;16.70;;;12.50;92.30;;;;;;5045680;28;20024;-73
2022/07/29 10:09:11;;;;;;;31.08;23.52;;;12.50;92.40;;;;;;5058395;28;20066;-71
2022/07/29 10:11:38;;;;;;;20.80;14.80;;;12.50;92.30;;;;;;5041700;28;20029;-73
2022/07/29 10:14:06;;;;;;;10.98;6.45;;;12.40;92.30;;;;;;5045436;28;20024;-76
2022/07/29 10:16:33;;;;;;;6.63;4.30;;;12.50;92.60;;;;;;5051043;28;20111;-73
2022/07/29 10:19:01;;;;;;;8.52;4.57;;;12.40;92.60;;;;;;5037960;28;20498;-75
2022/07/29 10:21:29;;;;;;;11.10;6.13;;;12.40;92.60;;;;;;5041551;28;20086;-75
2022/07/29 10:23:59;;;;;;;12.88;5.90;;;12.30;92.60;;;;;;5044946;28;20029;-73
2022/07/29 10:26:26;;;;;;;12.40;6.10;;;12.30;92.80;;;;;;5038965;28;20471;-74
2022/07/29 10:28:53;;;;;;;18.73;10.55;;;12.30;92.90;;;;;;5035719;28;20025;-71
2022/07/29 10:31:45;;;;;;;11.55;6.50;;;12.10;92.70;;;;;;5038850;28;20369;-72
2022/07/29 10:34:31;;;;;;;11.90;6.18;;;12.10;93.00;;;;;;5010322;28;20037;-71
2022/07/29 10:37:23;;;;;;;15.95;6.55;;;12.00;93.10;;;;;;5053352;28;20032;-72
2022/07/29 10:39:53;;;;;;;13.40;5.82;;;12.00;93.50;;;;;;5060684;28;20043;-74
2022/07/29 10:42:26;;;;;;;14.60;7.22;;;11.90;93.50;;;;;;5047444;28;20096;-74
2022/07/29 10:44:53;;;;;;;;;;;11.80;93.50;;;;;;5040474;28;20025;-72
2022/07/29 10:47:25;;;;;;;11.18;4.63;;;11.70;93.80;;;;;;5043066;28;20003;-75
2022/07/29 10:50:04;;;;;;;9.82;5.30;;;11.70;94.00;;;;;;5050832;28;20029;-73
2022/07/29 10:52:56;;;;;;;9.02;5.22;;;11.60;93.90;;;;;;5052211;28;20141;-73
2022/07/29 10:55:44;;;;;;;7.97;4.40;;;11.60;93.90;;;;;;5029844;28;20493;-72
2022/07/29 10:58:32;;;;;;;12.75;5.40;;;11.50;94.10;;;;;;5041040;28;20057;-73
2022/07/29 11:01:31;;;;;;;8.88;5.10;;;11.40;94.20;;;;;;5039716;28;20043;-73
2022/07/29 11:03:58;;;;;;;18.15;6.68;;;11.40;94.30;;;;;;5039709;28;20017;-76
2022/07/29 11:06:45;;;;;;;8.32;5.57;;;11.30;94.40;;;;;;5050263;28;20024;-75
2022/07/29 11:09:20;;;;;;;9.77;5.15;;;11.30;94.20;;;;;;5030853;28;20084;-73
2022/07/29 11:11:47;;;;;;;24.00;7.30;;;11.30;94.60;;;;;;5039290;28;20576;-72
2022/07/29 11:14:15;;;;;;;13.85;7.90;;;11.20;94.50;;;;;;5048990;28;20025;-72
2022/07/29 11:17:04;;;;;;;14.07;7.38;;;11.10;94.40;;;;;;5051674;28;20406;-73
2022/07/29 11:19:31;;;;;;;13.65;7.63;;;11.10;94.90;;;;;;5041177;28;20544;-73
2022/07/29 11:21:59;;;;;;;17.13;9.10;;;11.10;95.00;;;;;;5040094;28;20062;-74
2022/07/29 11:24:34;;;;;;;14.55;8.70;;;11.10;95.20;;;;;;5041495;28;20474;-73
2022/07/29 11:27:20;;;;;;;16.02;10.35;;;11.00;95.20;;;;;;5039972;28;20014;-73
2022/07/29 11:30:01;;;;;;;10.52;5.20;;;11.00;95.60;;;;;;5037835;28;20460;-74
2022/07/29 11:32:38;;;;;;;11.77;4.53;;;10.90;95.50;;;;;;5034025;28;20151;-74
2022/07/29 11:35:23;;;;;;;9.63;5.82;;;10.90;95.70;;;;;;5020272;28;20206;-74
2022/07/29 11:38:28;;;;;;;13.88;7.85;;;10.80;96.00;;;;;;5054582;28;20033;-72
2022/07/29 11:41:26;;;;;;;12.55;5.93;;;10.80;96.00;;;;;;5052816;28;20029;-71
2022/07/29 11:43:59;;;;;;;10.65;7.13;;;10.60;96.40;;;;;;5040437;28;20086;-72
2022/07/29 11:46:51;;;;;;;19.90;12.93;;;10.60;96.70;;;;;;5041169;28;20522;-73
2022/07/29 11:49:24;;;;;;;16.30;9.63;;;10.60;96.60;;;;;;5045000;28;20521;-73
2022/07/29 11:51:55;;;;;;;16.73;10.68;;;10.60;96.70;;;;;;5053099;28;20083;-74
2022/07/29 11:54:31;;;;;;;17.80;10.80;;;10.50;96.80;;;;;;5057045;28;20020;-74
2022/07/29 11:56:59;;;;;;;18.75;12.90;;;10.40;96.90;;;;;;5056248;28;20086;-74
2022/07/29 11:59:27;;;;;;;12.30;9.55;;;10.50;97.00;;;;;;5021921;28;20381;-72
2022/07/29 12:01:55;;;;;;;10.00;5.68;;;10.40;97.00;;;;;;5040136;28;20036;-71
2022/07/29 12:04:26;;;;;;;11.68;5.90;;;10.40;96.90;;;;;;5044101;28;20037;-73
2022/07/29 12:06:54;;;;;;;13.00;6.45;;;10.40;96.90;;;;;;5054499;28;20075;-73
2022/07/29 12:09:26;;;;;;;7.25;5.00;;;10.30;97.10;;;;;;5041687;28;20693;-72
2022/07/29 12:12:01;;;;;;;8.95;4.65;;;10.30;97.30;;;;;;5039886;28;20663;-74
2022/07/29 12:14:33;;;;;;;8.80;4.53;;;10.40;97.30;;;;;;5039390;28;20033;-72
2022/07/29 12:17:01;;;;;;;6.68;4.00;;;10.40;97.10;;;;;;5039497;28;20032;-74
2022/07/29 12:19:28;;;;;;;8.50;4.13;;;10.40;97.10;;;;;;5058892;28;20043;-73
2022/07/29 12:21:59;;;;;;;8.13;3.47;;;10.50;97.30;;;;;;5043418;28;20017;-81
2022/07/29 12:24:26;;;;;;;12.20;4.30;;;10.60;97.30;;;;;;5040308;28;20021;-74
2022/07/29 12:26:58;;;;;;;8.35;3.05;;;10.60;97.50;;;;;;5038234;28;20079;-80
2022/07/29 12:29:27;;;;;;;6.38;3.40;;;10.60;97.30;;;;;;5040227;28;20021;-75
2022/07/29 12:31:54;;;;;;;8.57;3.47;;;10.60;97.50;;;;;;5039567;28;20049;-74
2022/07/29 12:34:24;;;;;;;10.85;6.47;;;10.60;97.80;;;;;;5042204;28;20031;-76
2022/07/29 12:36:52;;;;;;;9.48;3.42;;;10.60;97.40;;;;;;5042269;28;20067;-72
2022/07/29 12:39:21;;;;;;;10.63;4.00;;;10.70;97.50;;;;;;5059594;28;20481;-74
2022/07/29 12:41:48;;;;;;;9.15;4.93;;;10.70;97.60;;;;;;5045784;28;20036;-72
2022/07/29 12:44:15;;;;;;;9.40;4.30;;;10.80;97.30;;;;;;5039304;28;20025;-75
2022/07/29 12:46:43;;;;;;;9.27;3.78;;;10.90;97.30;;;;;;5042786;28;20055;-73
2022/07/29 12:49:21;;;;;;;11.00;4.60;;;11.00;97.10;;;;;;5040105;28;20108;-79
2022/07/29 12:51:48;;;;;;;9.48;5.10;;;10.90;97.10;;;;;;5039580;28;20025;-75
2022/07/29 12:54:16;;;;;;;9.70;4.75;;;10.90;97.30;;;;;;5039358;28;20863;-76
2022/07/29 12:56:44;;;;;;;8.60;4.35;;;10.80;97.20;;;;;;5041736;28;20036;-75
2022/07/29 12:59:13;;;;;;;10.63;5.57;;;10.80;97.40;;;;;;5059143;28;20089;-72
2022/07/29 13:01:40;;;;;;;14.27;5.68;;;10.70;97.60;;;;;;5046222;28;20017;-71
2022/07/29 13:04:08;;;;;;;13.02;6.93;;;10.70;97.60;;;;;;5042882;28;20485;-74
2022/07/29 13:06:39;;;;;;;8.23;4.88;;;10.70;97.60;;;;;;5039532;28;20601;-72
2022/07/29 13:09:13;;;;;;;14.48;6.18;;;10.60;97.70;;;;;;5049520;28;20040;-72